createdAt,value
2017-08-07T00:02:15.472Z,16.43
2017-08-07T00:04:43.129Z,16.44
2017-08-07T00:07:10.800Z,16.40
2017-08-07T00:09:38.433Z,16.37
2017-08-07T00:12:06.079Z,16.33
2017-08-07T00:14:33.727Z,16.30
2017-08-07T00:17:01.382Z,16.27
2017-08-07T00:19:28.992Z,16.24
2017-08-07T00:21:56.948Z,16.20
2017-08-07T00:24:24.541Z,16.18
2017-08-07T00:26:52.164Z,16.14
2017-08-07T00:29:19.807Z,16.11
2017-08-07T00:31:48.264Z,16.11
2017-08-07T00:34:15.894Z,16.12
2017-08-07T00:36:43.509Z,16.10
2017-08-07T00:39:11.411Z,16.05
2017-08-07T00:41:39.046Z,16.02
2017-08-07T00:44:06.677Z,16.00
2017-08-07T00:46:34.299Z,16.00
2017-08-07T00:49:01.913Z,16.01
2017-08-07T00:51:31.731Z,15.98
2017-08-07T00:53:59.341Z,15.97
2017-08-07T00:56:27.287Z,15.95
2017-08-07T00:58:54.888Z,15.94
2017-08-07T01:01:22.580Z,15.96
2017-08-07T01:03:50.335Z,15.94
2017-08-07T01:06:18.000Z,15.90
2017-08-07T01:08:45.647Z,15.90
2017-08-07T01:11:13.258Z,15.90
2017-08-07T01:13:40.889Z,15.88
2017-08-07T01:16:08.502Z,15.81
2017-08-07T01:18:36.433Z,15.73
2017-08-07T01:21:04.047Z,15.68
2017-08-07T01:23:31.705Z,15.63
2017-08-07T01:25:59.582Z,15.57
2017-08-07T01:28:27.199Z,15.54
2017-08-07T01:30:54.856Z,15.52
2017-08-07T01:33:23.518Z,15.51
2017-08-07T01:35:51.157Z,15.49
2017-08-07T01:38:18.789Z,15.47
2017-08-07T01:40:46.379Z,15.47
2017-08-07T01:43:14.011Z,15.43
2017-08-07T01:45:41.644Z,15.44
2017-08-07T01:48:09.624Z,15.43
2017-08-07T01:50:37.239Z,15.42
2017-08-07T01:53:04.864Z,15.43
2017-08-07T01:55:32.509Z,15.41
2017-08-07T01:58:00.131Z,15.39
2017-08-07T02:00:27.764Z,15.35
2017-08-07T02:02:55.377Z,15.21
2017-08-07T02:05:23.365Z,15.06
2017-08-07T02:07:50.990Z,15.01
2017-08-07T02:10:19.286Z,14.86
2017-08-07T02:12:46.931Z,14.75
2017-08-07T02:15:14.545Z,14.76
2017-08-07T02:17:42.179Z,14.82
2017-08-07T02:20:10.777Z,14.84
2017-08-07T02:22:38.459Z,14.85
2017-08-07T02:25:06.074Z,14.89
2017-08-07T02:27:34.096Z,14.90
2017-08-07T02:30:01.806Z,14.90
2017-08-07T02:32:29.519Z,14.90
2017-08-07T02:34:57.144Z,14.92
2017-08-07T02:37:24.748Z,14.93
2017-08-07T02:39:52.574Z,14.93
2017-08-07T02:42:20.200Z,14.87
2017-08-07T02:44:47.859Z,14.82
2017-08-07T02:47:15.493Z,14.81
2017-08-07T02:49:43.542Z,14.79
2017-08-07T02:52:11.374Z,14.76
2017-08-07T02:54:39.116Z,14.67
2017-08-07T02:57:06.997Z,14.58
2017-08-07T02:59:34.599Z,14.52
2017-08-07T03:02:02.250Z,14.47
2017-08-07T03:04:32.891Z,14.41
2017-08-07T03:07:00.865Z,14.38
2017-08-07T03:09:28.472Z,14.36
2017-08-07T03:11:57.861Z,14.36
2017-08-07T03:14:26.557Z,14.38
2017-08-07T03:16:54.266Z,14.43
2017-08-07T03:19:22.255Z,14.45
2017-08-07T03:21:49.890Z,14.44
2017-08-07T03:24:17.533Z,14.40
2017-08-07T03:26:46.071Z,14.40
2017-08-07T03:29:13.676Z,14.40
2017-08-07T03:31:41.325Z,14.38
2017-08-07T03:34:08.942Z,14.41
2017-08-07T03:36:36.919Z,14.42
2017-08-07T03:39:04.527Z,14.44
2017-08-07T03:41:32.140Z,14.43
2017-08-07T03:43:59.794Z,14.44
2017-08-07T03:46:27.410Z,14.42
2017-08-07T03:48:55.033Z,14.39
2017-08-07T03:51:22.667Z,14.39
2017-08-07T03:53:50.637Z,14.42
2017-08-07T03:56:18.352Z,14.44
2017-08-07T03:58:46.045Z,14.48
2017-08-07T04:01:13.718Z,14.48
2017-08-07T04:03:41.310Z,14.51
2017-08-07T04:06:08.959Z,14.54
2017-08-07T04:08:36.576Z,14.55
2017-08-07T04:11:04.315Z,14.57
2017-08-07T04:13:31.955Z,14.54
2017-08-07T04:15:59.554Z,14.56
2017-08-07T04:18:27.216Z,14.59
2017-08-07T04:20:54.921Z,14.58
2017-08-07T04:23:22.613Z,14.56
2017-08-07T04:25:50.253Z,14.53
2017-08-07T04:28:17.896Z,14.52
2017-08-07T04:30:45.507Z,14.52
2017-08-07T04:33:13.159Z,14.53
2017-08-07T04:35:40.784Z,14.52
2017-08-07T04:38:08.772Z,14.54
2017-08-07T04:40:36.391Z,14.56
2017-08-07T04:43:04.178Z,14.58
2017-08-07T04:45:31.831Z,14.58
2017-08-07T04:47:59.474Z,14.59
2017-08-07T04:50:27.200Z,14.61
2017-08-07T04:52:54.924Z,14.64
2017-08-07T04:55:22.827Z,14.61
2017-08-07T04:57:50.753Z,14.59
2017-08-07T05:00:18.382Z,14.55
2017-08-07T05:02:46.028Z,14.53
2017-08-07T05:05:13.836Z,14.57
2017-08-07T05:07:41.482Z,14.54
2017-08-07T05:10:09.126Z,14.57
2017-08-07T05:12:36.885Z,14.55
2017-08-07T05:15:04.968Z,14.61
2017-08-07T05:17:32.988Z,14.67
2017-08-07T05:20:00.628Z,14.71
2017-08-07T05:22:28.252Z,14.67
2017-08-07T05:24:55.911Z,14.68
2017-08-07T05:27:23.510Z,14.68
2017-08-07T05:29:51.191Z,14.71
2017-08-07T05:32:18.834Z,14.74
2017-08-07T05:34:46.549Z,14.74
2017-08-07T05:37:14.182Z,14.76
2017-08-07T05:39:42.155Z,14.78
2017-08-07T05:42:09.806Z,14.79
2017-08-07T05:44:37.521Z,14.81
2017-08-07T05:47:05.158Z,14.81
2017-08-07T05:49:32.778Z,14.82
2017-08-07T05:52:00.498Z,14.82
2017-08-07T05:54:28.111Z,14.95
2017-08-07T05:56:56.122Z,15.06
2017-08-07T05:59:23.773Z,15.21
2017-08-07T06:01:51.404Z,15.33
2017-08-07T06:04:19.034Z,15.38
2017-08-07T06:06:46.649Z,15.41
2017-08-07T06:09:14.301Z,15.44
2017-08-07T06:11:41.913Z,15.56
2017-08-07T06:14:09.675Z,15.64
2017-08-07T06:16:37.378Z,15.79
2017-08-07T06:19:05.679Z,15.81
2017-08-07T06:21:33.382Z,15.83
2017-08-07T06:24:01.005Z,15.94
2017-08-07T06:26:28.647Z,16.00
2017-08-07T06:28:56.280Z,15.93
2017-08-07T06:31:23.908Z,15.91
2017-08-07T06:33:51.522Z,15.92
2017-08-07T06:36:19.432Z,15.97
2017-08-07T06:38:47.063Z,16.07
2017-08-07T06:41:14.765Z,16.10
2017-08-07T06:43:42.421Z,16.07
2017-08-07T06:46:10.397Z,16.07
2017-08-07T06:48:38.071Z,16.21
2017-08-07T06:51:05.686Z,16.34
2017-08-07T06:53:33.323Z,16.46
2017-08-07T06:56:01.059Z,16.49
2017-08-07T06:58:29.022Z,16.41
2017-08-07T07:00:56.840Z,16.43
2017-08-07T07:03:24.552Z,16.43
2017-08-07T07:05:52.304Z,16.47
2017-08-07T07:08:19.978Z,16.55
2017-08-07T07:10:47.613Z,16.59
2017-08-07T07:13:15.242Z,16.77
2017-08-07T07:15:42.870Z,16.79
2017-08-07T07:18:12.995Z,16.81
2017-08-07T07:20:40.657Z,16.85
2017-08-07T07:23:08.263Z,16.88
2017-08-07T07:25:36.308Z,16.95
2017-08-07T07:28:04.034Z,17.01
2017-08-07T07:30:32.340Z,17.07
2017-08-07T07:32:59.983Z,17.24
2017-08-07T07:35:27.612Z,17.43
2017-08-07T07:37:55.427Z,17.56
2017-08-07T07:40:23.086Z,17.72
2017-08-07T07:42:51.114Z,17.83
2017-08-07T07:45:18.745Z,17.84
2017-08-07T07:47:46.366Z,17.85
2017-08-07T07:50:14.222Z,17.85
2017-08-07T07:52:41.910Z,17.79
2017-08-07T07:55:09.550Z,17.84
2017-08-07T07:57:37.161Z,17.87
2017-08-07T08:00:04.808Z,17.90
2017-08-07T08:02:32.466Z,17.94
2017-08-07T08:05:00.104Z,17.99
2017-08-07T08:07:27.756Z,18.05
2017-08-07T08:09:55.804Z,18.11
2017-08-07T08:12:23.404Z,18.18
2017-08-07T08:14:51.029Z,18.25
2017-08-07T08:17:18.675Z,18.31
2017-08-07T08:19:46.304Z,18.35
2017-08-07T08:22:14.328Z,18.37
2017-08-07T08:24:41.951Z,18.40
2017-08-07T08:27:09.849Z,18.52
2017-08-07T08:29:37.497Z,18.66
2017-08-07T08:32:05.112Z,18.76
2017-08-07T08:34:32.757Z,18.86
2017-08-07T08:37:00.388Z,18.87
2017-08-07T08:39:28.368Z,18.91
2017-08-07T08:41:55.998Z,18.97
2017-08-07T08:44:23.620Z,19.02
2017-08-07T08:46:51.239Z,19.10
2017-08-07T08:49:18.868Z,19.24
2017-08-07T08:51:46.519Z,19.29
2017-08-07T08:54:14.280Z,19.34
2017-08-07T08:56:42.023Z,19.47
2017-08-07T08:59:09.640Z,19.52
2017-08-07T09:01:37.279Z,19.62
2017-08-07T09:04:04.937Z,19.67
2017-08-07T09:06:33.359Z,19.74
2017-08-07T09:09:01.251Z,19.83
2017-08-07T09:11:28.886Z,20.00
2017-08-07T09:13:56.610Z,20.17
2017-08-07T09:16:24.524Z,20.21
2017-08-07T09:18:52.147Z,20.31
2017-08-07T09:21:19.770Z,20.42
2017-08-07T09:23:47.406Z,20.46
2017-08-07T09:26:15.399Z,20.59
2017-08-07T09:28:43.044Z,20.76
2017-08-07T09:31:10.669Z,20.89
2017-08-07T09:33:38.316Z,20.96
2017-08-07T09:36:05.943Z,21.00
2017-08-07T09:38:33.583Z,21.14
2017-08-07T09:41:01.312Z,21.28
2017-08-07T09:43:28.960Z,21.28
2017-08-07T09:45:56.579Z,21.29
2017-08-07T09:48:24.485Z,21.37
2017-08-07T09:50:52.115Z,21.45
2017-08-07T09:53:19.714Z,21.50
2017-08-07T09:55:47.495Z,21.56
2017-08-07T09:58:15.205Z,21.64
2017-08-07T10:00:43.595Z,21.54
2017-08-07T10:03:11.209Z,21.62
2017-08-07T10:05:38.843Z,21.68
2017-08-07T10:08:06.503Z,21.88
2017-08-07T10:10:34.108Z,22.05
2017-08-07T10:13:01.751Z,22.16
2017-08-07T10:15:29.366Z,22.21
2017-08-07T10:17:57.316Z,22.33
2017-08-07T10:20:24.931Z,22.44
2017-08-07T10:22:52.664Z,22.52
2017-08-07T10:25:20.336Z,22.56
2017-08-07T10:27:48.041Z,22.53
2017-08-07T10:30:15.680Z,22.35
2017-08-07T10:32:43.312Z,22.19
2017-08-07T10:35:11.402Z,22.21
2017-08-07T10:37:40.090Z,22.36
2017-08-07T10:40:07.792Z,22.38
2017-08-07T10:42:35.438Z,22.51
2017-08-07T10:45:03.054Z,22.50
2017-08-07T10:47:30.711Z,22.41
2017-08-07T10:49:58.354Z,22.52
2017-08-07T10:52:25.988Z,22.59
2017-08-07T10:54:53.611Z,22.53
2017-08-07T10:57:21.562Z,22.31
2017-08-07T10:59:49.192Z,22.31
2017-08-07T11:02:16.799Z,22.43
2017-08-07T11:04:44.435Z,22.66
2017-08-07T11:07:12.061Z,22.78
2017-08-07T11:09:39.705Z,22.79
2017-08-07T11:12:07.414Z,22.92
2017-08-07T11:14:35.081Z,22.82
2017-08-07T11:17:02.699Z,22.86
2017-08-07T11:19:30.709Z,23.03
2017-08-07T11:21:58.343Z,23.28
2017-08-07T11:24:25.962Z,23.31
2017-08-07T11:26:53.598Z,23.15
2017-08-07T11:29:21.217Z,23.14
2017-08-07T11:31:48.874Z,23.23
2017-08-07T11:34:16.503Z,23.24
2017-08-07T11:36:44.435Z,23.23
2017-08-07T11:39:12.066Z,23.35
2017-08-07T11:41:39.697Z,23.47
2017-08-07T11:44:07.341Z,23.55
2017-08-07T11:46:34.944Z,23.29
2017-08-07T11:49:02.586Z,23.16
2017-08-07T11:51:30.196Z,23.24
2017-08-07T11:53:58.204Z,23.30
2017-08-07T11:56:25.864Z,23.37
2017-08-07T11:58:53.471Z,23.33
2017-08-07T12:01:21.106Z,23.43
2017-08-07T12:03:48.704Z,23.55
2017-08-07T12:06:16.755Z,23.72
2017-08-07T12:08:44.371Z,23.80
2017-08-07T12:11:11.993Z,23.87
2017-08-07T12:13:39.626Z,24.05
2017-08-07T12:16:07.250Z,23.99
2017-08-07T12:18:35.907Z,23.86
2017-08-07T12:21:03.517Z,23.92
2017-08-07T12:23:31.154Z,24.02
2017-08-07T12:25:58.855Z,24.17
2017-08-07T12:28:26.813Z,24.33
2017-08-07T12:30:54.426Z,24.35
2017-08-07T12:33:22.057Z,24.29
2017-08-07T12:35:49.700Z,24.23
2017-08-07T12:38:17.309Z,24.24
2017-08-07T12:40:44.942Z,24.30
2017-08-07T12:43:12.981Z,24.32
2017-08-07T12:45:40.653Z,24.37
2017-08-07T12:48:08.260Z,24.42
2017-08-07T12:50:36.329Z,24.37
2017-08-07T12:53:03.940Z,24.23
2017-08-07T12:55:31.573Z,24.29
2017-08-07T12:57:59.235Z,24.38
2017-08-07T13:00:26.920Z,24.47
2017-08-07T13:02:54.565Z,24.55
2017-08-07T13:05:22.186Z,24.62
2017-08-07T13:07:50.158Z,24.67
2017-08-07T13:10:17.758Z,24.64
2017-08-07T13:12:45.368Z,24.77
2017-08-07T13:15:13.097Z,24.82
2017-08-07T13:17:40.720Z,24.76
2017-08-07T13:20:08.430Z,24.46
2017-08-07T13:22:36.110Z,24.52
2017-08-07T13:25:03.888Z,24.69
2017-08-07T13:27:31.506Z,24.88
2017-08-07T13:29:59.503Z,24.98
2017-08-07T13:32:27.129Z,25.03
2017-08-07T13:34:54.755Z,25.18
2017-08-07T13:37:22.425Z,25.29
2017-08-07T13:39:50.672Z,25.34
2017-08-07T13:42:18.308Z,25.31
2017-08-07T13:44:45.926Z,25.36
2017-08-07T13:47:13.593Z,25.33
2017-08-07T13:49:41.222Z,25.36
2017-08-07T13:52:09.266Z,25.51
2017-08-07T13:54:36.939Z,25.64
2017-08-07T13:57:04.586Z,25.59
2017-08-07T13:59:32.224Z,25.67
2017-08-07T14:01:59.849Z,25.78
2017-08-07T14:04:27.531Z,25.88
2017-08-07T14:06:55.165Z,26.07
2017-08-07T14:09:23.114Z,26.10
2017-08-07T14:11:50.736Z,26.18
2017-08-07T14:14:18.378Z,26.25
2017-08-07T14:16:46.123Z,26.38
2017-08-07T14:19:13.830Z,26.55
2017-08-07T14:21:41.511Z,26.75
2017-08-07T14:24:09.132Z,27.03
2017-08-07T14:26:36.888Z,27.42
2017-08-07T14:29:04.528Z,27.75
2017-08-07T14:31:32.482Z,28.24
2017-08-07T14:34:00.097Z,28.78
2017-08-07T14:36:27.733Z,28.96
2017-08-07T14:38:55.367Z,29.34
2017-08-07T14:41:23.073Z,29.34
2017-08-07T14:43:51.133Z,29.48
2017-08-07T14:46:18.761Z,29.56
2017-08-07T14:48:46.388Z,29.47
2017-08-07T14:51:14.032Z,29.64
2017-08-07T14:53:41.676Z,29.57
2017-08-07T14:56:09.309Z,29.78
2017-08-07T14:58:36.930Z,29.50
2017-08-07T15:01:04.560Z,29.41
2017-08-07T15:03:32.187Z,29.40
2017-08-07T15:06:00.276Z,29.41
2017-08-07T15:08:28.052Z,29.31
2017-08-07T15:10:55.681Z,29.52
2017-08-07T15:13:23.341Z,29.61
2017-08-07T15:15:51.032Z,29.78
2017-08-07T15:18:18.754Z,29.70
2017-08-07T15:20:46.476Z,29.69
2017-08-07T15:23:14.125Z,29.85
2017-08-07T15:25:41.750Z,30.17
2017-08-07T15:28:09.740Z,30.20
2017-08-07T15:30:37.359Z,30.06
2017-08-07T15:33:04.981Z,30.02
2017-08-07T15:35:32.607Z,29.81
2017-08-07T15:38:00.207Z,29.75
2017-08-07T15:40:28.153Z,29.61
2017-08-07T15:42:55.781Z,29.60
2017-08-07T15:45:23.408Z,29.61
2017-08-07T15:47:51.150Z,29.52
2017-08-07T15:50:18.784Z,29.57
2017-08-07T15:52:46.414Z,29.59
2017-08-07T15:55:14.032Z,29.58
2017-08-07T15:57:41.717Z,29.43
2017-08-07T16:00:09.320Z,29.34
2017-08-07T16:02:37.005Z,29.38
2017-08-07T16:05:04.625Z,29.06
2017-08-07T16:07:32.236Z,28.86
2017-08-07T16:09:59.894Z,28.42
2017-08-07T16:12:27.552Z,28.04
2017-08-07T16:14:55.804Z,27.95
2017-08-07T16:17:23.498Z,28.02
2017-08-07T16:19:51.123Z,27.75
2017-08-07T16:22:18.772Z,27.53
2017-08-07T16:24:46.395Z,27.23
2017-08-07T16:27:14.065Z,26.85
2017-08-07T16:29:53.598Z,26.61
2017-08-07T16:32:21.365Z,26.28
2017-08-07T16:34:48.998Z,25.97
2017-08-07T16:37:17.087Z,25.67
2017-08-07T16:39:44.715Z,25.51
2017-08-07T16:42:12.338Z,25.39
2017-08-07T16:44:40.023Z,25.21
2017-08-07T16:47:07.653Z,25.08
2017-08-07T16:49:35.417Z,24.97
2017-08-07T16:52:03.052Z,24.88
2017-08-07T16:54:30.795Z,24.85
2017-08-07T16:56:58.405Z,24.86
2017-08-07T16:59:26.389Z,24.78
2017-08-07T17:01:54.016Z,24.68
2017-08-07T17:04:21.715Z,24.55
2017-08-07T17:06:49.431Z,24.49
2017-08-07T17:09:17.170Z,24.35
2017-08-07T17:11:44.821Z,24.25
2017-08-07T17:14:12.454Z,24.15
2017-08-07T17:16:40.384Z,24.05
2017-08-07T17:19:08.021Z,23.96
2017-08-07T17:21:35.790Z,23.94
2017-08-07T17:24:03.409Z,23.91
2017-08-07T17:26:31.072Z,23.88
2017-08-07T17:28:59.014Z,23.78
2017-08-07T17:31:27.125Z,23.74
2017-08-07T17:33:54.759Z,23.71
2017-08-07T17:36:22.408Z,23.66
2017-08-07T17:38:50.027Z,23.55
2017-08-07T17:41:17.684Z,23.50
2017-08-07T17:43:45.338Z,23.41
2017-08-07T17:46:13.085Z,23.35
2017-08-07T17:48:40.793Z,23.31
2017-08-07T17:51:08.805Z,23.28
2017-08-07T17:53:36.421Z,23.25
2017-08-07T17:56:04.028Z,23.19
2017-08-07T17:58:31.693Z,23.08
2017-08-07T18:00:59.361Z,23.02
2017-08-07T18:03:27.014Z,22.94
2017-08-07T18:05:54.643Z,22.92
2017-08-07T18:08:22.644Z,22.84
2017-08-07T18:10:50.290Z,22.82
2017-08-07T18:13:17.913Z,22.76
2017-08-07T18:15:45.548Z,22.71
2017-08-07T18:18:13.612Z,22.66
2017-08-07T18:20:41.321Z,22.62
2017-08-07T18:23:08.980Z,22.58
2017-08-07T18:25:37.133Z,22.54
2017-08-07T18:28:04.764Z,22.49
2017-08-07T18:30:32.496Z,22.42
2017-08-07T18:33:00.228Z,22.33
2017-08-07T18:35:27.896Z,22.27
2017-08-07T18:37:55.532Z,22.19
2017-08-07T18:40:23.158Z,22.12
2017-08-07T18:42:51.701Z,22.08
2017-08-07T18:45:19.325Z,22.01
2017-08-07T18:47:47.090Z,21.95
2017-08-07T18:50:14.725Z,21.89
2017-08-07T18:52:42.603Z,21.82
2017-08-07T18:55:10.274Z,21.74
2017-08-07T18:57:37.973Z,21.67
2017-08-07T19:00:05.668Z,21.62
2017-08-07T19:02:33.979Z,21.57
2017-08-07T19:05:01.635Z,21.54
2017-08-07T19:07:29.328Z,21.46
2017-08-07T19:09:58.214Z,21.43
2017-08-07T19:12:26.023Z,21.35
2017-08-07T19:14:53.671Z,21.30
2017-08-07T19:17:21.310Z,21.25
2017-08-07T19:19:48.916Z,21.20
2017-08-07T19:22:17.493Z,21.16
2017-08-07T19:24:45.217Z,21.10
2017-08-07T19:27:13.156Z,21.08
2017-08-07T19:29:42.221Z,20.99
2017-08-07T19:32:09.828Z,21.01
2017-08-07T19:34:37.650Z,20.98
2017-08-07T19:37:05.375Z,20.94
2017-08-07T19:39:33.135Z,20.89
2017-08-07T19:42:00.747Z,20.85
2017-08-07T19:44:28.478Z,20.82
2017-08-07T19:46:56.084Z,20.78
2017-08-07T19:49:24.163Z,20.73
2017-08-07T19:51:51.865Z,20.69
2017-08-07T19:54:19.649Z,20.63
2017-08-07T19:56:47.291Z,20.60
2017-08-07T19:59:14.918Z,20.56
2017-08-07T20:01:42.612Z,20.53
2017-08-07T20:04:10.240Z,20.49
2017-08-07T20:06:38.114Z,20.45
2017-08-07T20:09:05.856Z,20.40
2017-08-07T20:11:33.606Z,20.37
2017-08-07T20:14:01.331Z,20.34
2017-08-07T20:16:29.379Z,20.29
2017-08-07T20:18:57.023Z,20.25
2017-08-07T20:21:24.649Z,20.20
2017-08-07T20:23:52.306Z,20.14
2017-08-07T20:26:19.941Z,20.08
2017-08-07T20:28:47.614Z,20.03
2017-08-07T20:31:15.199Z,19.99
2017-08-07T20:33:42.824Z,19.97
2017-08-07T20:36:10.434Z,19.94
2017-08-07T20:38:40.145Z,19.90
2017-08-07T20:41:07.769Z,19.84
2017-08-07T20:43:35.373Z,19.78
2017-08-07T20:46:03.026Z,19.74
2017-08-07T20:48:30.635Z,19.73
2017-08-07T20:50:58.236Z,19.72
2017-08-07T20:53:25.854Z,19.68
2017-08-07T20:55:54.163Z,19.63
2017-08-07T20:58:21.795Z,19.60
2017-08-07T21:00:49.507Z,19.58
2017-08-07T21:03:17.145Z,19.55
2017-08-07T21:05:44.764Z,19.54
2017-08-07T21:08:12.386Z,19.50
2017-08-07T21:10:39.997Z,19.45
2017-08-07T21:13:07.661Z,19.43
2017-08-07T21:15:35.259Z,19.41
2017-08-07T21:18:03.206Z,19.39
2017-08-07T21:20:30.857Z,19.38
2017-08-07T21:22:58.478Z,19.37
2017-08-07T21:25:26.133Z,19.33
2017-08-07T21:27:53.764Z,19.31
2017-08-07T21:30:21.661Z,19.30
2017-08-07T21:32:49.250Z,19.26
2017-08-07T21:35:16.854Z,19.25
2017-08-07T21:37:44.503Z,19.22
2017-08-07T21:40:12.118Z,19.20
2017-08-07T21:42:39.750Z,19.18
2017-08-07T21:45:07.370Z,19.15
2017-08-07T21:47:34.993Z,19.13
2017-08-07T21:50:02.599Z,19.08
2017-08-07T21:52:30.224Z,19.05
2017-08-07T21:54:57.818Z,19.04
2017-08-07T21:57:25.879Z,19.02
2017-08-07T21:59:53.484Z,19.01
2017-08-07T22:02:21.100Z,18.98
2017-08-07T22:04:48.729Z,18.97
2017-08-07T22:07:16.325Z,18.94
2017-08-07T22:09:44.038Z,18.92
2017-08-07T22:12:11.650Z,18.88
2017-08-07T22:14:39.623Z,18.85
2017-08-07T22:17:07.225Z,18.86
2017-08-07T22:19:34.830Z,18.85
2017-08-07T22:22:02.474Z,18.84
2017-08-07T22:24:30.074Z,18.84
2017-08-07T22:26:57.722Z,18.81
2017-08-07T22:29:25.389Z,18.76
2017-08-07T22:31:53.050Z,18.75
2017-08-07T22:34:20.647Z,18.73
2017-08-07T22:36:48.595Z,18.75
2017-08-07T22:39:16.210Z,18.75
2017-08-07T22:41:43.815Z,18.71
2017-08-07T22:44:11.477Z,18.68
2017-08-07T22:46:39.200Z,18.66
2017-08-07T22:49:06.902Z,18.64
2017-08-07T22:51:34.590Z,18.61
2017-08-07T22:54:02.220Z,18.59
2017-08-07T22:56:29.842Z,18.58
2017-08-07T22:58:57.472Z,18.58
2017-08-07T23:01:25.073Z,18.55
2017-08-07T23:03:53.103Z,18.52
2017-08-07T23:06:20.708Z,18.50
2017-08-07T23:08:48.316Z,18.48
2017-08-07T23:11:16.009Z,18.42
2017-08-07T23:13:43.609Z,18.40
2017-08-07T23:16:11.308Z,18.37
2017-08-07T23:18:38.909Z,18.35
2017-08-07T23:21:06.827Z,18.30
2017-08-07T23:23:34.426Z,18.27
2017-08-07T23:26:02.053Z,18.25
2017-08-07T23:28:29.703Z,18.21
2017-08-07T23:30:57.314Z,18.16
2017-08-07T23:33:24.952Z,18.13
2017-08-07T23:35:52.556Z,18.09
2017-08-07T23:38:20.552Z,18.04
2017-08-07T23:40:48.135Z,18.04
2017-08-07T23:43:15.739Z,18.01
2017-08-07T23:45:43.448Z,18.01
2017-08-07T23:48:11.041Z,18.02
2017-08-07T23:50:38.650Z,17.99
2017-08-07T23:53:06.251Z,17.96
2017-08-07T23:55:34.180Z,17.92
2017-08-07T23:58:01.785Z,17.88
